createdAt,value
2022-11-02T00:01:40.351Z,32.90
2022-11-02T00:04:07.654Z,33.43
2022-11-02T00:06:34.842Z,33.77
2022-11-02T00:09:02.967Z,33.27
2022-11-02T00:11:30.163Z,30.77
2022-11-02T00:13:57.250Z,34.83
2022-11-02T00:16:25.495Z,32.03
2022-11-02T00:18:56.125Z,33.43
2022-11-02T00:21:25.359Z,33.03
2022-11-02T00:23:55.034Z,34.63
2022-11-02T00:26:22.201Z,33.53
2022-11-02T00:28:49.321Z,33.60
2022-11-02T00:31:16.370Z,36.97
2022-11-02T00:33:43.320Z,34.87
2022-11-02T00:36:10.526Z,35.57
2022-11-02T00:38:37.573Z,35.17
2022-11-02T00:41:04.494Z,36.87
2022-11-02T00:43:31.935Z,36.53
2022-11-02T00:45:59.007Z,36.47
2022-11-02T00:48:26.096Z,37.40
2022-11-02T00:50:52.978Z,38.80
2022-11-02T00:53:19.788Z,38.03
2022-11-02T00:55:47.559Z,37.83
2022-11-02T00:58:14.773Z,39.33
2022-11-02T01:00:41.882Z,36.43
2022-11-02T01:03:08.750Z,38.83
2022-11-02T01:05:36.982Z,38.17
2022-11-02T01:08:04.708Z,38.93
2022-11-02T01:10:32.011Z,37.83
2022-11-02T01:12:58.764Z,40.17
2022-11-02T01:15:25.701Z,39.17
2022-11-02T01:17:52.739Z,37.80
2022-11-02T01:20:19.666Z,40.93
2022-11-02T01:22:46.671Z,39.37
2022-11-02T01:25:13.682Z,39.20
2022-11-02T01:27:40.678Z,41.83
2022-11-02T01:30:08.222Z,40.97
2022-11-02T01:32:35.317Z,40.73
2022-11-02T01:35:02.934Z,39.33
2022-11-02T01:37:29.931Z,41.93
2022-11-02T01:39:56.722Z,41.37
2022-11-02T01:42:26.161Z,41.43
2022-11-02T01:44:53.276Z,41.97
2022-11-02T01:47:47.703Z,42.37
2022-11-02T01:50:25.756Z,42.77
2022-11-02T01:52:53.092Z,44.53
2022-11-02T01:55:29.403Z,43.20
2022-11-02T01:58:10.081Z,43.77
2022-11-02T02:00:38.696Z,44.37
2022-11-02T02:03:16.749Z,44.23
2022-11-02T02:06:05.079Z,44.87
2022-11-02T02:08:38.392Z,45.40
2022-11-02T02:11:31.434Z,50.33
2022-11-02T02:14:19.738Z,49.30
2022-11-02T02:17:15.268Z,48.37
2022-11-02T02:19:55.012Z,47.27
2022-11-02T02:23:01.198Z,47.00
2022-11-02T02:25:45.230Z,44.57
2022-11-02T02:28:20.955Z,46.87
2022-11-02T02:31:07.470Z,50.17
2022-11-02T02:34:10.829Z,46.97
2022-11-02T02:37:01.196Z,49.80
2022-11-02T02:39:42.047Z,49.03
2022-11-02T02:42:21.590Z,50.93
2022-11-02T02:45:14.175Z,49.20
2022-11-02T02:47:49.375Z,49.83
2022-11-02T02:50:21.279Z,48.07
2022-11-02T02:52:50.678Z,49.20
2022-11-02T02:55:23.014Z,49.20
2022-11-02T02:57:54.461Z,45.37
2022-11-02T03:00:21.523Z,47.17
2022-11-02T03:03:00.969Z,48.13
2022-11-02T03:05:36.696Z,48.60
2022-11-02T03:08:16.177Z,47.10
2022-11-02T03:10:59.156Z,50.23
2022-11-02T03:13:35.072Z,47.30
2022-11-02T03:16:10.562Z,48.60
2022-11-02T03:18:47.929Z,49.40
2022-11-02T03:21:28.055Z,47.80
2022-11-02T03:24:12.328Z,50.53
2022-11-02T03:26:57.747Z,47.23
2022-11-02T03:30:02.851Z,49.93
2022-11-02T03:32:36.669Z,47.63
2022-11-02T03:35:10.439Z,49.00
2022-11-02T03:37:45.318Z,48.80
2022-11-02T03:40:18.177Z,49.27
2022-11-02T03:42:47.102Z,48.43
2022-11-02T03:45:19.031Z,48.27
2022-11-02T03:47:50.600Z,49.07
2022-11-02T03:50:21.639Z,46.17
2022-11-02T03:53:03.794Z,47.73
2022-11-02T03:55:42.685Z,46.43
2022-11-02T03:58:12.882Z,48.00
2022-11-02T04:00:50.171Z,47.30
2022-11-02T04:03:18.808Z,48.93
2022-11-02T04:05:45.804Z,46.70
2022-11-02T04:08:23.054Z,46.03
2022-11-02T04:11:09.318Z,46.57
2022-11-02T04:13:54.904Z,44.10
2022-11-02T04:16:26.749Z,45.30
2022-11-02T04:19:13.795Z,47.20
2022-11-02T04:22:01.499Z,47.50
2022-11-02T04:24:47.017Z,45.50
2022-11-02T04:27:19.674Z,44.80
2022-11-02T04:29:48.048Z,42.27
2022-11-02T04:32:15.180Z,43.00
2022-11-02T04:34:42.100Z,44.00
2022-11-02T04:39:55.774Z,40.97
2022-11-02T04:42:22.601Z,42.10
2022-11-02T04:44:51.594Z,41.10
2022-11-02T04:47:18.472Z,41.80
2022-11-02T04:49:45.294Z,42.77
2022-11-02T04:52:12.175Z,41.00
2022-11-02T04:54:38.961Z,42.20
2022-11-02T04:57:05.819Z,44.13
2022-11-02T04:59:32.705Z,43.87
2022-11-02T05:01:59.576Z,46.77
2022-11-02T05:04:26.506Z,48.60
2022-11-02T05:06:56.403Z,48.30
2022-11-02T05:09:26.806Z,48.10
2022-11-02T05:11:53.629Z,48.60
2022-11-02T05:14:20.397Z,46.30
2022-11-02T05:16:48.502Z,46.87
2022-11-02T05:19:15.295Z,47.43
2022-11-02T05:21:42.249Z,43.20
2022-11-02T05:24:09.319Z,42.17
2022-11-02T05:26:36.168Z,45.17
2022-11-02T05:29:03.127Z,42.37
2022-11-02T05:31:30.160Z,45.37
2022-11-02T05:33:57.035Z,46.93
2022-11-02T05:36:23.882Z,45.93
2022-11-02T05:38:54.949Z,43.80
2022-11-02T05:41:23.411Z,41.77
2022-11-02T05:43:50.206Z,44.13
2022-11-02T05:46:18.951Z,38.97
2022-11-02T05:48:45.740Z,41.90
2022-11-02T05:51:12.614Z,44.73
2022-11-02T05:53:39.436Z,36.20
2022-11-02T05:56:07.744Z,45.93
2022-11-02T05:58:34.717Z,39.40
2022-11-02T06:01:03.458Z,39.17
2022-11-02T06:03:31.681Z,41.33
2022-11-02T06:06:03.539Z,39.43
2022-11-02T06:08:35.084Z,40.83
2022-11-02T06:11:09.621Z,34.87
2022-11-02T06:13:36.781Z,38.77
2022-11-02T06:16:05.563Z,39.00
2022-11-02T06:18:32.632Z,39.73
2022-11-02T06:21:00.900Z,39.47
2022-11-02T06:23:28.708Z,39.60
2022-11-02T06:25:58.172Z,41.73
2022-11-02T06:28:25.276Z,39.73
2022-11-02T06:30:52.454Z,40.77
2022-11-02T06:33:20.096Z,34.43
2022-11-02T06:35:49.107Z,39.23
2022-11-02T06:38:16.454Z,37.90
2022-11-02T06:40:43.582Z,36.10
2022-11-02T06:43:16.409Z,38.00
2022-11-02T06:45:44.302Z,37.37
2022-11-02T06:48:11.383Z,38.00
2022-11-02T06:50:38.525Z,40.83
2022-11-02T06:53:05.645Z,36.80
2022-11-02T06:55:32.865Z,35.70
2022-11-02T06:57:59.668Z,35.23
2022-11-02T07:00:26.615Z,37.70
2022-11-02T07:03:01.183Z,38.80
2022-11-02T07:05:28.454Z,37.90
2022-11-02T07:07:55.771Z,35.77
2022-11-02T07:10:22.597Z,37.57
2022-11-02T07:12:53.314Z,37.43
2022-11-02T07:15:21.242Z,36.77
2022-11-02T07:17:48.373Z,36.77
2022-11-02T07:20:15.459Z,36.70
2022-11-02T07:22:42.768Z,37.03
2022-11-02T07:25:09.870Z,37.00
2022-11-02T07:27:40.274Z,37.27
2022-11-02T07:30:08.524Z,35.67
2022-11-02T07:32:43.823Z,36.83
2022-11-02T07:35:12.484Z,36.77
2022-11-02T07:37:40.352Z,35.50
2022-11-02T07:40:09.581Z,36.03
2022-11-02T07:42:36.582Z,35.00
2022-11-02T07:45:03.785Z,35.43
2022-11-02T07:47:30.913Z,32.30
2022-11-02T07:49:59.628Z,34.30
2022-11-02T07:52:26.710Z,30.00
2022-11-02T07:54:53.741Z,31.17
2022-11-02T07:57:20.685Z,30.90
2022-11-02T07:59:47.629Z,29.17
2022-11-02T08:02:14.699Z,28.07
2022-11-02T08:04:44.856Z,27.20
2022-11-02T08:07:12.652Z,29.67
2022-11-02T08:09:39.650Z,27.50
2022-11-02T08:12:06.823Z,31.23
2022-11-02T08:14:33.627Z,28.20
2022-11-02T08:17:00.519Z,29.40
2022-11-02T08:19:27.330Z,26.83
2022-11-02T08:21:56.159Z,25.60
2022-11-02T08:24:23.137Z,26.67
2022-11-02T08:26:53.889Z,26.70
2022-11-02T08:29:22.241Z,26.90
2022-11-02T08:31:49.401Z,25.90
2022-11-02T08:34:16.350Z,27.07
2022-11-02T08:36:43.335Z,26.83
2022-11-02T08:39:13.366Z,26.20
2022-11-02T08:41:43.871Z,27.03
2022-11-02T08:44:10.909Z,25.30
2022-11-02T08:46:37.728Z,25.63
2022-11-02T08:49:04.577Z,24.83
2022-11-02T08:51:31.954Z,27.77
2022-11-02T08:53:59.339Z,24.63
2022-11-02T08:56:27.373Z,27.57
2022-11-02T08:58:54.219Z,25.57
2022-11-02T09:01:21.127Z,24.03
2022-11-02T09:03:47.887Z,24.40
2022-11-02T09:06:14.636Z,23.45
2022-11-02T09:08:41.417Z,26.02
2022-11-02T09:11:08.173Z,24.87
2022-11-02T09:13:34.967Z,24.60
2022-11-02T09:16:02.689Z,24.50
2022-11-02T09:18:30.375Z,25.80
2022-11-02T09:20:57.424Z,25.17
2022-11-02T09:23:24.291Z,23.30
2022-11-02T09:25:51.444Z,23.17
2022-11-02T09:28:18.690Z,20.27
2022-11-02T09:30:45.901Z,20.75
2022-11-02T09:33:13.491Z,20.27
2022-11-02T09:35:44.378Z,19.17
2022-11-02T09:38:12.271Z,18.83
2022-11-02T09:40:44.920Z,19.55
2022-11-02T09:43:59.831Z,20.50
2022-11-02T09:46:34.325Z,17.07
2022-11-02T09:49:10.406Z,17.67
2022-11-02T09:51:42.771Z,16.98
2022-11-02T09:54:29.481Z,16.65
2022-11-02T09:57:04.488Z,17.80
2022-11-02T09:59:31.689Z,17.20
2022-11-02T10:02:15.241Z,17.60
2022-11-02T10:05:01.322Z,19.65
2022-11-02T10:07:37.213Z,18.65
2022-11-02T10:10:14.020Z,19.25
2022-11-02T10:13:04.980Z,19.67
2022-11-02T10:16:00.390Z,19.07
2022-11-02T10:18:29.931Z,17.90
2022-11-02T10:21:13.637Z,18.15
2022-11-02T10:23:47.281Z,17.60
2022-11-02T10:26:23.576Z,15.73
2022-11-02T10:29:06.786Z,15.80
2022-11-02T10:31:34.812Z,14.73
2022-11-02T10:34:19.579Z,15.25
2022-11-02T10:37:27.095Z,15.43
2022-11-02T10:40:25.511Z,14.73
2022-11-02T10:43:15.309Z,13.38
2022-11-02T10:45:52.128Z,14.55
2022-11-02T10:48:37.720Z,14.27
2022-11-02T10:51:15.996Z,14.68
2022-11-02T10:53:47.544Z,12.88
2022-11-02T10:56:23.240Z,14.88
2022-11-02T10:58:58.744Z,14.40
2022-11-02T11:01:26.535Z,17.55
2022-11-02T11:04:03.326Z,16.02
2022-11-02T11:06:37.264Z,16.35
2022-11-02T11:09:17.738Z,14.20
2022-11-02T11:12:04.125Z,15.23
2022-11-02T11:20:40.199Z,15.55
2022-11-02T11:23:19.395Z,12.65
2022-11-02T11:25:58.018Z,13.13
2022-11-02T11:28:29.718Z,13.55
2022-11-02T11:31:15.856Z,12.30
2022-11-02T11:34:00.280Z,11.93
2022-11-02T11:36:34.987Z,10.77
2022-11-02T11:39:20.481Z,10.00
2022-11-02T11:41:47.588Z,10.35
2022-11-02T11:44:15.553Z,9.50
2022-11-02T11:46:48.434Z,9.57
2022-11-02T11:50:09.487Z,10.98
2022-11-02T11:52:31.243Z,9.93
2022-11-02T11:55:01.434Z,11.15
2022-11-02T11:57:31.686Z,11.10
2022-11-02T12:00:01.804Z,11.32
2022-11-02T12:02:30.717Z,11.25
2022-11-02T12:05:11.075Z,12.50
2022-11-02T12:08:02.828Z,11.90
2022-11-02T12:10:50.995Z,12.30
2022-11-02T12:13:59.931Z,11.80
2022-11-02T12:16:35.694Z,11.00
2022-11-02T12:19:14.632Z,11.80
2022-11-02T12:21:55.272Z,11.82
2022-11-02T12:24:46.977Z,12.80
2022-11-02T12:27:52.032Z,12.85
2022-11-02T12:30:20.968Z,10.43
2022-11-02T12:33:03.219Z,13.43
2022-11-02T12:35:48.456Z,11.02
2022-11-02T12:38:55.292Z,11.07
2022-11-02T12:41:37.225Z,9.27
2022-11-02T12:44:20.638Z,12.60
2022-11-02T12:46:56.527Z,12.15
2022-11-02T12:49:39.581Z,12.90
2022-11-02T12:52:12.388Z,12.30
2022-11-02T12:55:01.841Z,14.85
2022-11-02T12:57:34.175Z,13.02
2022-11-02T13:00:07.085Z,14.52
2022-11-02T13:02:49.497Z,12.90
2022-11-02T13:05:23.125Z,14.10
2022-11-02T13:08:30.482Z,15.18
2022-11-02T13:11:00.355Z,12.63
2022-11-02T13:13:39.094Z,15.32
2022-11-02T13:16:10.385Z,15.25
2022-11-02T13:18:53.676Z,14.60
2022-11-02T13:21:37.435Z,16.10
2022-11-02T13:24:15.866Z,16.63
2022-11-02T13:26:44.048Z,17.60
2022-11-02T13:29:40.060Z,15.00
2022-11-02T13:32:17.806Z,18.63
2022-11-02T13:34:48.191Z,15.98
2022-11-02T13:37:39.709Z,18.60
2022-11-02T13:40:15.455Z,16.85
2022-11-02T13:42:58.341Z,17.35
2022-11-02T13:45:59.404Z,17.35
2022-11-02T13:49:03.689Z,17.55
2022-11-02T13:51:37.475Z,17.67
2022-11-02T13:54:30.428Z,18.02
2022-11-02T13:56:58.824Z,15.93
2022-11-02T13:59:28.453Z,18.30
2022-11-02T14:01:56.651Z,19.38
2022-11-02T14:04:24.458Z,18.42
2022-11-02T14:06:58.937Z,18.85
2022-11-02T14:09:42.558Z,19.25
2022-11-02T14:12:28.396Z,18.35
2022-11-02T14:15:18.422Z,18.25
2022-11-02T14:18:15.743Z,18.25
2022-11-02T14:20:46.711Z,17.10
2022-11-02T14:23:18.512Z,17.35
2022-11-02T14:25:49.806Z,18.35
2022-11-02T14:28:22.780Z,19.63
2022-11-02T14:31:02.191Z,19.10
2022-11-02T14:33:48.028Z,19.53
2022-11-02T14:36:17.980Z,21.00
2022-11-02T14:39:00.817Z,20.52
2022-11-02T14:42:01.821Z,22.50
2022-11-02T14:44:31.497Z,22.53
2022-11-02T14:47:09.407Z,24.37
2022-11-02T14:49:51.574Z,21.53
2022-11-02T14:52:43.052Z,22.60
2022-11-02T14:55:23.648Z,21.07
2022-11-02T14:57:54.105Z,21.77
2022-11-02T15:00:35.813Z,21.63
2022-11-02T15:03:06.861Z,18.60
2022-11-02T15:05:39.381Z,19.33
2022-11-02T15:08:20.244Z,18.13
2022-11-02T15:10:47.319Z,18.67
2022-11-02T15:13:20.102Z,19.83
2022-11-02T15:15:56.148Z,18.93
2022-11-02T15:18:37.235Z,18.87
2022-11-02T15:21:10.188Z,21.87
2022-11-02T15:23:55.696Z,23.60
2022-11-02T15:26:31.634Z,21.97
2022-11-02T15:29:02.167Z,20.23
2022-11-02T15:31:30.338Z,21.37
2022-11-02T15:34:01.557Z,25.50
2022-11-02T15:36:36.510Z,31.70
2022-11-02T15:39:08.113Z,35.20
2022-11-02T15:41:45.444Z,33.63
2022-11-02T15:44:55.471Z,31.00
2022-11-02T15:47:34.580Z,25.73
2022-11-02T15:50:25.641Z,25.67
2022-11-02T15:53:24.899Z,25.37
2022-11-02T15:56:21.250Z,23.97
2022-11-02T15:59:22.457Z,21.73
2022-11-02T16:02:05.823Z,23.57
2022-11-02T16:04:35.144Z,26.57
2022-11-02T16:07:07.025Z,22.23
2022-11-02T16:09:36.763Z,22.80
2022-11-02T16:12:24.730Z,21.07
2022-11-02T16:15:04.290Z,17.93
2022-11-02T16:17:32.401Z,13.00
2022-11-02T16:20:33.814Z,11.97
2022-11-02T16:23:12.800Z,9.63
2022-11-02T16:25:44.989Z,11.17
2022-11-02T16:28:28.418Z,9.83
2022-11-02T16:31:17.403Z,8.67
2022-11-02T16:33:51.534Z,8.50
2022-11-02T16:36:31.020Z,7.70
2022-11-02T16:39:01.846Z,7.23
2022-11-02T16:41:31.327Z,7.47
2022-11-02T16:44:02.604Z,7.97
2022-11-02T16:46:32.047Z,9.20
2022-11-02T16:49:18.836Z,8.93
2022-11-02T16:51:57.687Z,8.20
2022-11-02T16:54:35.062Z,8.57
2022-11-02T16:57:21.868Z,10.57
2022-11-02T16:59:58.839Z,11.17
2022-11-02T17:02:38.692Z,12.13
2022-11-02T17:05:20.950Z,10.63
2022-11-02T17:07:59.309Z,11.47
2022-11-02T17:10:28.690Z,13.50
2022-11-02T17:12:57.012Z,12.90
2022-11-02T17:15:29.054Z,13.37
2022-11-02T17:18:08.458Z,15.83
2022-11-02T17:20:37.271Z,14.27
2022-11-02T17:23:06.739Z,16.07
2022-11-02T17:25:38.839Z,15.03
2022-11-02T17:28:34.472Z,14.57
2022-11-02T17:31:01.793Z,14.43
2022-11-02T17:33:31.035Z,14.30
2022-11-02T17:36:05.863Z,21.10
2022-11-02T17:38:32.908Z,21.97
2022-11-02T17:41:00.760Z,19.23
2022-11-02T17:43:27.644Z,18.47
2022-11-02T17:45:58.967Z,17.87
2022-11-02T17:48:29.117Z,21.23
2022-11-02T17:50:57.482Z,20.97
2022-11-02T17:53:24.520Z,19.57
2022-11-02T17:55:51.589Z,18.30
2022-11-02T17:58:18.557Z,17.07
2022-11-02T18:00:45.674Z,16.37
2022-11-02T18:03:19.062Z,15.50
2022-11-02T18:05:49.487Z,15.07
2022-11-02T18:08:18.348Z,15.13
2022-11-02T18:10:47.146Z,15.50
2022-11-02T18:13:16.665Z,15.70
2022-11-02T18:15:43.929Z,16.87
2022-11-02T18:18:10.999Z,16.27
2022-11-02T18:20:41.782Z,16.13
2022-11-02T18:23:15.795Z,14.67
2022-11-02T18:25:42.978Z,15.10
2022-11-02T18:28:10.949Z,17.93
2022-11-02T18:30:43.135Z,23.67
2022-11-02T18:33:13.405Z,18.53
2022-11-02T18:35:42.166Z,19.23
2022-11-02T18:38:09.070Z,15.83
2022-11-02T18:40:36.101Z,12.70
2022-11-02T18:43:03.380Z,13.70
2022-11-02T18:45:30.572Z,12.20
2022-11-02T18:47:57.358Z,11.70
2022-11-02T18:50:24.253Z,9.97
2022-11-02T18:52:51.764Z,9.27
2022-11-02T18:55:18.820Z,7.83
2022-11-02T18:57:45.916Z,8.13
2022-11-02T19:00:13.904Z,6.70
2022-11-02T19:02:41.094Z,7.13
2022-11-02T19:05:28.090Z,7.87
2022-11-02T19:08:13.880Z,7.37
2022-11-02T19:10:41.479Z,8.00
2022-11-02T19:13:08.581Z,6.60
2022-11-02T19:15:39.855Z,6.47
2022-11-02T19:18:09.291Z,7.20
2022-11-02T19:20:36.126Z,7.30
2022-11-02T19:23:03.047Z,7.10
2022-11-02T19:25:30.084Z,7.20
2022-11-02T19:27:57.019Z,8.17
2022-11-02T19:30:24.199Z,7.80
2022-11-02T19:32:51.220Z,7.23
2022-11-02T19:35:18.963Z,7.63
2022-11-02T19:37:45.863Z,8.20
2022-11-02T19:40:12.850Z,6.93
2022-11-02T19:42:39.918Z,7.87
2022-11-02T19:45:07.255Z,7.27
2022-11-02T19:47:34.357Z,7.43
2022-11-02T19:50:01.413Z,7.03
2022-11-02T19:52:28.538Z,7.37
2022-11-02T19:54:55.565Z,7.17
2022-11-02T19:57:22.425Z,7.93
2022-11-02T19:59:49.315Z,9.33
2022-11-02T20:02:16.415Z,7.93
2022-11-02T20:04:44.904Z,8.23
2022-11-02T20:07:11.986Z,8.70
2022-11-02T20:09:38.853Z,8.97
2022-11-02T20:12:07.583Z,8.87
2022-11-02T20:14:36.329Z,9.57
2022-11-02T20:17:25.684Z,12.90
2022-11-02T20:19:49.900Z,15.07
2022-11-02T20:22:18.391Z,14.90
2022-11-02T20:24:45.126Z,11.20
2022-11-02T20:27:13.962Z,11.90
2022-11-02T20:29:41.015Z,13.63
2022-11-02T20:32:10.282Z,12.90
2022-11-02T20:34:37.183Z,10.73
2022-11-02T20:37:05.111Z,9.77
2022-11-02T20:39:31.970Z,11.17
2022-11-02T20:41:58.798Z,10.83
2022-11-02T20:44:25.618Z,11.93
2022-11-02T20:46:53.517Z,12.37
2022-11-02T20:49:48.277Z,11.30
2022-11-02T20:52:10.060Z,11.63
2022-11-02T20:54:36.829Z,12.83
2022-11-02T20:57:03.595Z,13.97
2022-11-02T20:59:30.331Z,13.57
2022-11-02T21:01:57.175Z,13.80
2022-11-02T21:04:24.208Z,12.83
2022-11-02T21:06:51.020Z,12.83
2022-11-02T21:09:18.556Z,12.77
2022-11-02T21:12:04.240Z,14.63
2022-11-02T21:14:31.071Z,13.23
2022-11-02T21:16:57.859Z,13.73
2022-11-02T21:19:24.720Z,15.43
2022-11-02T21:21:58.156Z,11.77
2022-11-02T21:24:27.052Z,12.30
2022-11-02T21:26:53.844Z,13.63
2022-11-02T21:29:21.237Z,11.57
2022-11-02T21:31:48.260Z,13.80
2022-11-02T21:34:15.033Z,12.00
2022-11-02T21:36:41.802Z,11.37
2022-11-02T21:39:08.530Z,11.13
2022-11-02T21:41:38.445Z,10.47
2022-11-02T21:44:06.654Z,11.53
2022-11-02T21:46:33.480Z,10.57
2022-11-02T21:49:00.267Z,11.07
2022-11-02T21:51:27.313Z,10.37
2022-11-02T21:53:54.522Z,9.00
2022-11-02T21:56:23.333Z,9.23
2022-11-02T21:58:50.181Z,9.80
2022-11-02T22:01:38.115Z,9.87
2022-11-02T22:04:06.118Z,9.03
2022-11-02T22:06:33.262Z,9.17
2022-11-02T22:09:01.210Z,9.07
2022-11-02T22:11:28.542Z,9.10
2022-11-02T22:13:57.373Z,8.87
2022-11-02T22:16:28.210Z,9.23
2022-11-02T22:18:57.161Z,11.30
2022-11-02T22:21:26.193Z,12.70
2022-11-02T22:23:53.631Z,13.07
2022-11-02T22:26:22.484Z,11.43
2022-11-02T22:28:50.129Z,9.03
2022-11-02T22:31:20.162Z,9.77
2022-11-02T22:33:48.960Z,10.27
2022-11-02T22:36:18.206Z,11.90
2022-11-02T22:38:54.465Z,10.53
2022-11-02T22:41:25.617Z,11.70
2022-11-02T22:43:57.958Z,8.10
2022-11-02T22:46:26.649Z,8.20
2022-11-02T22:48:55.451Z,7.00
2022-11-02T22:51:24.542Z,5.70
2022-11-02T22:53:51.723Z,5.37
2022-11-02T22:56:20.908Z,5.20
2022-11-02T22:58:48.965Z,4.50
2022-11-02T23:01:21.092Z,4.40
2022-11-02T23:03:48.994Z,3.70
2022-11-02T23:06:18.305Z,3.90
2022-11-02T23:08:46.220Z,3.43
2022-11-02T23:11:23.495Z,3.70
2022-11-02T23:14:00.329Z,3.83
2022-11-02T23:16:31.739Z,4.57
2022-11-02T23:19:20.382Z,3.73
2022-11-02T23:22:21.440Z,3.77
2022-11-02T23:25:09.183Z,3.37
2022-11-02T23:27:58.521Z,2.90
2022-11-02T23:30:47.249Z,3.57
2022-11-02T23:33:14.586Z,4.07
2022-11-02T23:36:00.501Z,3.37
2022-11-02T23:38:50.948Z,3.93
2022-11-02T23:41:19.541Z,2.70
2022-11-02T23:43:47.221Z,2.87
2022-11-02T23:46:14.506Z,3.67
2022-11-02T23:48:41.974Z,3.30
2022-11-02T23:51:31.646Z,3.33
2022-11-02T23:54:17.055Z,3.30
2022-11-02T23:56:44.129Z,3.47
2022-11-02T23:59:12.985Z,3.60
